Time;durP1;ratioP1;P1;durP2;ratioP2;P2;SDS_P1;SDS_P2;PMS_P1;PMS_P2;Temp;Humidity;BMP_temperature;BMP_pressure;BME280_temperature;BME280_humidity;BME280_pressure;Samples;Min_cycle;Max_cycle;Signal;HPM_P1;HPM_P2
2021/11/12 00:12:23;;;;;;;3.50;2.80;;;11.20;80.70;;;;;;4951901;28;20034;-82
2021/11/12 00:14:51;;;;;;;3.22;2.85;;;11.10;80.60;;;;;;4951449;28;20047;-81
2021/11/12 00:17:20;;;;;;;3.42;2.70;;;11.10;80.60;;;;;;4951388;28;20038;-81
2021/11/12 00:19:47;;;;;;;3.22;2.92;;;11.10;80.70;;;;;;4951192;28;20038;-81
2021/11/12 00:22:13;;;;;;;3.25;2.78;;;11.10;80.80;;;;;;4951780;28;20090;-82
2021/11/12 00:24:39;;;;;;;3.88;3.08;;;11.10;80.80;;;;;;4951298;28;20078;-82
2021/11/12 00:27:07;;;;;;;5.00;3.30;;;11.10;80.90;;;;;;4968626;28;20618;-82
2021/11/12 00:30:23;;;;;;;6.53;3.35;;;11.10;81.00;;;;;;4951441;28;20039;-82
2021/11/12 00:35:05;;;;;;;3.90;2.67;;;11.10;81.00;;;;;;4968391;28;19914;-82
2021/11/12 00:40:05;;;;;;;5.35;2.90;;;11.20;81.20;;;;;;4967813;28;20031;-82
2021/11/12 00:42:42;;;;;;;3.20;2.90;;;11.20;81.20;;;;;;4968427;28;20034;-81
2021/11/12 00:45:09;;;;;;;4.28;3.40;;;11.20;81.20;;;;;;4950898;28;20027;-81
2021/11/12 00:53:39;;;;;;;5.60;2.90;;;11.20;81.40;;;;;;4950634;28;20066;-81
2021/11/12 00:55:25;;;;;;;4.78;3.05;;;11.20;81.50;;;;;;4967602;28;20038;-81
2021/11/12 00:57:53;;;;;;;3.03;2.72;;;11.30;81.60;;;;;;4951089;28;20027;-81
2021/11/12 01:00:20;;;;;;;5.95;3.55;;;11.30;81.60;;;;;;4950900;28;20646;-82
2021/11/12 01:02:46;;;;;;;4.93;3.30;;;11.30;81.70;;;;;;4958912;28;20054;-81
2021/11/12 01:05:12;;;;;;;3.40;3.08;;;11.30;81.70;;;;;;4969902;28;20041;-81
2021/11/12 01:07:39;;;;;;;5.03;3.15;;;11.30;81.70;;;;;;4988058;28;20026;-81
2021/11/12 01:10:09;;;;;;;4.22;3.80;;;11.30;81.70;;;;;;4986488;28;20030;-81
2021/11/12 01:12:37;;;;;;;6.38;3.53;;;11.40;81.90;;;;;;4986497;28;20454;-82
2021/11/12 01:15:05;;;;;;;4.05;2.83;;;11.40;81.90;;;;;;4987446;28;20401;-82
2021/11/12 01:17:31;;;;;;;3.40;3.10;;;11.40;81.90;;;;;;4987107;28;20516;-82
2021/11/12 01:19:57;;;;;;;4.93;3.33;;;11.40;81.90;;;;;;4987038;28;20034;-82
2021/11/12 01:22:23;;;;;;;5.07;3.55;;;11.40;81.90;;;;;;4987060;28;20066;-81
2021/11/12 01:24:50;;;;;;;3.50;3.20;;;11.40;81.90;;;;;;4986925;28;20035;-83
2021/11/12 01:27:16;;;;;;;4.32;3.50;;;11.50;82.10;;;;;;4987805;28;20030;-83
2021/11/12 01:29:42;;;;;;;4.18;3.30;;;11.50;82.10;;;;;;4969804;28;20497;-83
2021/11/12 01:32:26;;;;;;;4.05;3.50;;;11.50;82.10;;;;;;4953177;28;20037;-83
2021/11/12 01:34:58;;;;;;;4.72;3.70;;;11.50;82.00;;;;;;4969948;28;20042;-82
2021/11/12 01:37:26;;;;;;;5.63;3.45;;;11.60;82.20;;;;;;4987017;28;20482;-83
2021/11/12 01:39:56;;;;;;;4.18;3.58;;;11.60;82.10;;;;;;4986443;28;20486;-83
2021/11/12 01:42:24;;;;;;;4.45;3.88;;;11.60;82.10;;;;;;4987236;28;20753;-83
2021/11/12 01:45:03;;;;;;;4.47;3.50;;;11.60;82.10;;;;;;4953276;28;20383;-83
2021/11/12 01:50:08;;;;;;;5.00;3.38;;;11.70;82.10;;;;;;4969620;28;20026;-83
2021/11/12 01:53:25;;;;;;;5.93;3.47;;;11.70;82.10;;;;;;4969328;28;20053;-83
2021/11/12 01:55:44;;;;;;;5.15;3.33;;;11.70;82.10;;;;;;4959751;28;20062;-84
2021/11/12 02:00:49;;;;;;;4.65;3.35;;;11.70;81.90;;;;;;4987471;28;20038;-83
2021/11/12 02:03:15;;;;;;;5.07;3.75;;;11.70;81.90;;;;;;4969171;28;20057;-84
2021/11/12 02:05:41;;;;;;;5.22;3.25;;;11.70;81.90;;;;;;4970795;28;20465;-84
2021/11/12 02:08:10;;;;;;;3.83;3.17;;;11.80;82.00;;;;;;4990832;28;20093;-83
2021/11/12 02:10:37;;;;;;;4.05;3.47;;;11.80;82.00;;;;;;4972354;28;20445;-83
2021/11/12 02:15:30;;;;;;;4.53;3.33;;;11.80;81.90;;;;;;4990582;28;20113;-82
2021/11/12 02:18:00;;;;;;;8.75;4.30;;;11.80;81.90;;;;;;4972693;28;20026;-82
2021/11/12 02:20:42;;;;;;;4.05;3.65;;;11.80;81.90;;;;;;4972786;28;20039;-81
2021/11/12 02:23:08;;;;;;;5.43;3.13;;;11.80;81.90;;;;;;4990361;28;20036;-82
2021/11/12 02:25:38;;;;;;;4.95;3.65;;;11.90;82.00;;;;;;4990161;28;20325;-81
2021/11/12 02:28:10;;;;;;;5.70;4.70;;;11.90;81.90;;;;;;4972690;28;20237;-82
2021/11/12 02:30:37;;;;;;;4.90;3.83;;;11.90;81.90;;;;;;4972473;28;20105;-81
2021/11/12 02:33:18;;;;;;;6.07;4.07;;;11.90;81.90;;;;;;4991965;28;20167;-81
2021/11/12 02:36:04;;;;;;;4.97;3.85;;;11.90;81.80;;;;;;4992228;28;20040;-82
2021/11/12 02:38:32;;;;;;;4.15;3.33;;;11.90;81.70;;;;;;4973993;28;20038;-82
2021/11/12 02:40:59;;;;;;;4.63;3.92;;;11.90;81.70;;;;;;4973629;28;20470;-81
2021/11/12 02:43:26;;;;;;;4.90;3.85;;;12.00;81.90;;;;;;4974269;28;20026;-81
2021/11/12 02:45:52;;;;;;;5.45;3.65;;;12.00;81.80;;;;;;4992106;28;20157;-81
2021/11/12 02:48:18;;;;;;;4.68;4.15;;;12.00;81.70;;;;;;4994397;28;20046;-82
2021/11/12 02:50:44;;;;;;;6.75;4.85;;;11.90;81.50;;;;;;4977171;28;20481;-81
2021/11/12 02:53:16;;;;;;;7.00;4.82;;;11.90;81.50;;;;;;4994478;28;20038;-81
2021/11/12 02:55:44;;;;;;;4.22;3.80;;;11.90;81.50;;;;;;4994160;28;20026;-81
2021/11/12 02:58:11;;;;;;;5.57;3.90;;;11.90;81.40;;;;;;4977114;28;20026;-81
2021/11/12 03:00:39;;;;;;;8.15;4.68;;;11.90;81.40;;;;;;4994346;28;20109;-83
2021/11/12 03:03:05;;;;;;;6.63;4.22;;;11.90;81.40;;;;;;4976474;28;20486;-83
2021/11/12 03:05:32;;;;;;;5.72;3.72;;;11.90;81.50;;;;;;4994647;28;20037;-83
2021/11/12 03:08:00;;;;;;;7.57;3.97;;;12.00;81.60;;;;;;4994399;28;20305;-83
2021/11/12 03:10:26;;;;;;;5.25;3.72;;;11.90;81.40;;;;;;4993889;28;20370;-84
2021/11/12 03:12:52;;;;;;;4.22;3.58;;;11.90;81.40;;;;;;4993954;28;20042;-84
2021/11/12 03:15:20;;;;;;;4.40;4.00;;;11.90;81.40;;;;;;4976981;28;20045;-82
2021/11/12 03:17:49;;;;;;;5.13;4.05;;;12.00;81.60;;;;;;4993549;28;20056;-84
2021/11/12 03:20:16;;;;;;;5.18;3.92;;;12.00;81.60;;;;;;4976394;28;20034;-83
2021/11/12 03:22:58;;;;;;;4.30;3.90;;;12.00;81.60;;;;;;4993550;28;20126;-83
2021/11/12 03:56:24;;;;;;;5.28;3.45;;;12.10;81.40;;;;;;4993413;28;20066;-82
2021/11/12 04:17:23;;;;;;;6.05;3.85;;;12.10;81.30;;;;;;4975020;28;20022;-81
2021/11/12 05:12:26;;;;;;;3.78;2.83;;;12.40;81.40;;;;;;4991481;28;20474;-83
2021/11/12 05:44:29;;;;;;;3.55;3.15;;;12.50;81.20;;;;;;4991283;28;20478;-82
2021/11/12 05:52:20;;;;;;;3.97;3.00;;;12.60;81.40;;;;;;4988606;28;20049;-83
2021/11/12 05:55:07;;;;;;;4.93;2.95;;;12.50;81.20;;;;;;4954269;28;20042;-84
2021/11/12 05:57:34;;;;;;;4.68;2.97;;;12.60;81.40;;;;;;4988610;28;20038;-82
2021/11/12 06:00:00;;;;;;;3.90;2.92;;;12.60;81.40;;;;;;4971242;28;20030;-86
2021/11/12 06:02:26;;;;;;;4.57;3.65;;;12.60;81.40;;;;;;4969597;28;20045;-86
2021/11/12 06:04:52;;;;;;;3.13;2.85;;;12.60;81.40;;;;;;4953091;28;20068;-85
2021/11/12 06:07:21;;;;;;;4.05;3.28;;;12.60;81.60;;;;;;4953989;28;20473;-85
2021/11/12 06:10:05;;;;;;;4.70;2.65;;;12.70;81.60;;;;;;4949721;28;20073;-86
2021/11/12 06:12:32;;;;;;;5.00;3.28;;;12.70;81.60;;;;;;4955228;28;20485;-83
2021/11/12 06:14:58;;;;;;;5.10;2.88;;;12.70;81.60;;;;;;4968841;28;20417;-84
2021/11/12 06:17:24;;;;;;;3.08;2.78;;;12.70;81.60;;;;;;4969128;28;20037;-84
2021/11/12 06:19:50;;;;;;;3.72;2.67;;;12.70;81.60;;;;;;4986863;28;20030;-84
2021/11/12 06:22:16;;;;;;;3.58;2.80;;;12.70;81.50;;;;;;4953245;28;20037;-86
2021/11/12 06:24:42;;;;;;;2.95;2.55;;;12.70;81.50;;;;;;4968759;28;20113;-80
2021/11/12 06:27:08;;;;;;;3.78;2.33;;;12.70;81.50;;;;;;4986372;28;20031;-85
2021/11/12 06:29:35;;;;;;;3.60;2.05;;;12.80;81.70;;;;;;4969018;28;20065;-83
2021/11/12 06:32:02;;;;;;;3.75;2.45;;;12.80;81.90;;;;;;4981525;28;20524;-84
2021/11/12 06:34:29;;;;;;;2.90;2.67;;;12.80;82.10;;;;;;4982988;28;20104;-84
2021/11/12 06:36:55;;;;;;;3.00;2.45;;;12.80;82.30;;;;;;4968580;28;20031;-83
2021/11/12 06:39:21;;;;;;;3.92;2.33;;;12.90;82.50;;;;;;4953264;28;20038;-84
2021/11/12 06:49:48;;;;;;;3.28;2.13;;;12.90;82.60;;;;;;4986460;28;20065;-84
2021/11/12 06:52:16;;;;;;;3.17;2.03;;;12.90;82.60;;;;;;4986956;28;20054;-82
2021/11/12 06:54:45;;;;;;;2.75;2.53;;;12.90;82.60;;;;;;4990747;28;20078;-88
2021/11/12 06:57:16;;;;;;;2.63;2.40;;;13.00;82.80;;;;;;4989600;28;20041;-84
2021/11/12 06:59:43;;;;;;;2.50;2.20;;;12.90;82.60;;;;;;4989496;28;20607;-82
2021/11/12 07:02:11;;;;;;;3.33;2.45;;;13.00;82.80;;;;;;4990240;28;20034;-87
2021/11/12 07:04:37;;;;;;;3.45;2.72;;;13.00;82.70;;;;;;4973371;28;20478;-82
2021/11/12 07:07:06;;;;;;;4.97;2.50;;;13.00;82.70;;;;;;4990729;28;20389;-84
2021/11/12 07:09:34;;;;;;;2.17;1.98;;;13.00;82.70;;;;;;4989074;28;20038;-83
2021/11/12 07:12:00;;;;;;;3.35;2.15;;;13.00;82.70;;;;;;4989330;28;20375;-85
2021/11/12 07:14:26;;;;;;;3.42;2.03;;;13.00;82.70;;;;;;4976852;28;20070;-82
2021/11/12 07:16:52;;;;;;;2.92;2.30;;;13.10;82.90;;;;;;4970281;28;20133;-80
2021/11/12 07:19:19;;;;;;;2.63;2.05;;;13.10;82.90;;;;;;4985727;28;20038;-90
2021/11/12 07:21:45;;;;;;;2.38;1.50;;;13.00;82.70;;;;;;4986603;28;20034;-86
2021/11/12 07:24:12;;;;;;;1.90;1.63;;;13.00;82.70;;;;;;4962674;28;20143;-83
2021/11/12 07:26:38;;;;;;;2.78;1.77;;;13.10;82.90;;;;;;4945103;28;20026;-84
2021/11/12 07:29:04;;;;;;;3.22;2.05;;;13.00;82.60;;;;;;4952189;28;20489;-81
2021/11/12 07:31:31;;;;;;;2.47;1.73;;;13.10;82.80;;;;;;4952825;28;20027;-81
2021/11/12 07:34:00;;;;;;;3.28;2.40;;;13.10;82.80;;;;;;4968677;28;20140;-83
2021/11/12 07:36:35;;;;;;;6.10;2.25;;;13.10;82.80;;;;;;4969731;28;20027;-80
2021/11/12 07:39:06;;;;;;;2.75;1.65;;;13.10;82.80;;;;;;4969736;28;20087;-83
2021/11/12 07:47:09;;;;;;;3.28;1.80;;;13.10;82.70;;;;;;4951871;28;20043;-81
2021/11/12 07:49:37;;;;;;;5.05;2.15;;;13.10;82.70;;;;;;4969511;28;20117;-83
2021/11/12 07:52:07;;;;;;;2.55;1.40;;;13.10;82.70;;;;;;4969323;28;20047;-83
2021/11/12 07:54:33;;;;;;;3.63;2.20;;;13.10;82.70;;;;;;4951724;28;20059;-81
2021/11/12 07:57:01;;;;;;;3.55;1.77;;;13.10;82.60;;;;;;4952055;28;20041;-82
2021/11/12 07:59:28;;;;;;;4.13;2.35;;;13.10;82.60;;;;;;4951527;28;20044;-83
2021/11/12 08:01:54;;;;;;;4.57;2.10;;;13.10;82.60;;;;;;4937512;28;20031;-82
2021/11/12 08:04:20;;;;;;;2.10;1.50;;;13.20;82.70;;;;;;4970467;28;20034;-82
2021/11/12 08:06:50;;;;;;;6.90;1.90;;;13.20;82.70;;;;;;4971146;28;20393;-82
2021/11/12 08:09:18;;;;;;;5.25;2.00;;;13.20;82.60;;;;;;4970366;28;20117;-83
2021/11/12 08:11:48;;;;;;;4.68;1.95;;;13.20;82.60;;;;;;4970661;28;20026;-82
2021/11/12 08:14:21;;;;;;;3.72;2.28;;;13.20;82.50;;;;;;4938583;28;20133;-81
2021/11/12 08:16:57;;;;;;;6.97;1.77;;;13.20;82.50;;;;;;4971053;28;20022;-82
2021/11/12 08:19:37;;;;;;;5.35;2.35;;;13.20;82.50;;;;;;4954573;28;20042;-83
2021/11/12 08:32:56;;;;;;;5.47;1.80;;;13.40;82.50;;;;;;4957464;28;20091;-83
2021/11/12 08:41:05;;;;;;;7.13;2.38;;;13.40;82.30;;;;;;4987371;28;20034;-81
2021/11/12 08:43:33;;;;;;;4.20;2.15;;;13.40;82.20;;;;;;4987241;28;20108;-82
2021/11/12 08:46:13;;;;;;;4.40;2.03;;;13.40;82.20;;;;;;4971031;28;20105;-80
2021/11/12 08:51:15;;;;;;;5.43;2.00;;;13.50;82.20;;;;;;4987972;28;20055;-81
2021/11/12 08:53:43;;;;;;;6.68;2.83;;;13.50;82.20;;;;;;4987876;28;20493;-81
2021/11/12 08:56:13;;;;;;;6.82;2.80;;;13.50;82.10;;;;;;4970595;28;20066;-81
2021/11/12 08:58:44;;;;;;;8.43;2.08;;;13.60;82.30;;;;;;4987611;28;20382;-82
2021/11/12 09:01:11;;;;;;;9.05;2.22;;;13.60;82.70;;;;;;4987283;28;20057;-80
2021/11/12 09:03:38;;;;;;;8.70;2.55;;;13.60;82.10;;;;;;4969141;28;20085;-81
2021/11/12 09:06:06;;;;;;;8.60;2.20;;;13.70;82.20;;;;;;4986184;28;20100;-84
2021/11/12 09:08:36;;;;;;;9.10;2.97;;;13.70;82.10;;;;;;4969215;28;20036;-82
2021/11/12 09:11:04;;;;;;;8.13;2.42;;;13.70;82.00;;;;;;4986212;28;20034;-82
2021/11/12 09:13:41;;;;;;;6.88;2.38;;;13.70;82.00;;;;;;4987045;28;20310;-84
2021/11/12 09:16:15;;;;;;;7.40;1.92;;;13.70;81.90;;;;;;4987175;28;20446;-83
2021/11/12 09:18:43;;;;;;;9.23;3.17;;;13.70;81.90;;;;;;4969773;28;20270;-85
2021/11/12 09:21:10;;;;;;;7.82;2.22;;;13.70;81.80;;;;;;4953958;28;20405;-80
2021/11/12 09:23:36;;;;;;;10.98;2.67;;;13.70;81.80;;;;;;4987092;28;20374;-81
2021/11/12 09:26:03;;;;;;;6.43;2.03;;;13.70;81.80;;;;;;4987118;28;20030;-81
2021/11/12 09:28:32;;;;;;;9.63;2.45;;;13.70;81.70;;;;;;4969311;28;20026;-81
2021/11/12 09:30:59;;;;;;;8.18;2.63;;;13.70;81.70;;;;;;4987276;28;20129;-82
2021/11/12 09:33:25;;;;;;;10.63;2.85;;;13.70;81.70;;;;;;4975882;28;20520;-81
2021/11/12 09:35:51;;;;;;;6.85;2.10;;;13.80;81.80;;;;;;4985192;28;20109;-81
2021/11/12 09:38:18;;;;;;;12.00;2.63;;;13.80;81.70;;;;;;4986616;28;20057;-82
2021/11/12 09:40:45;;;;;;;7.57;2.33;;;13.80;81.70;;;;;;4986587;28;20125;-80
2021/11/12 09:43:11;;;;;;;8.07;2.53;;;13.80;81.60;;;;;;4986811;28;20030;-81
2021/11/12 09:45:37;;;;;;;8.60;2.88;;;13.90;81.80;;;;;;4986967;28;20393;-80
2021/11/12 09:48:04;;;;;;;4.65;2.53;;;13.90;81.80;;;;;;4969916;28;20022;-78
2021/11/12 09:50:31;;;;;;;5.65;2.38;;;13.90;81.70;;;;;;4987031;28;20287;-79
2021/11/12 09:52:59;;;;;;;7.65;2.85;;;14.00;81.90;;;;;;4985129;28;20026;-82
2021/11/12 09:55:26;;;;;;;12.65;4.70;;;14.00;81.70;;;;;;4987324;28;20224;-79
2021/11/12 09:57:52;;;;;;;8.50;2.17;;;14.10;81.80;;;;;;4969174;28;20430;-80
2021/11/12 10:00:24;;;;;;;10.85;4.25;;;14.20;81.90;;;;;;4969312;28;20440;-86
2021/11/12 10:02:51;;;;;;;7.78;2.17;;;14.20;81.80;;;;;;4986504;28;20050;-80
2021/11/12 10:05:33;;;;;;;8.82;2.08;;;14.30;81.90;;;;;;4969138;28;20042;-81
2021/11/12 10:08:00;;;;;;;13.63;3.03;;;14.30;81.70;;;;;;4962784;28;20372;-82
2021/11/12 10:10:27;;;;;;;9.82;2.97;;;14.30;81.60;;;;;;4956049;28;20151;-81
2021/11/12 10:12:56;;;;;;;15.70;3.25;;;14.40;81.70;;;;;;4954488;28;20039;-82
2021/11/12 10:15:31;;;;;;;11.15;2.90;;;14.40;81.70;;;;;;4949571;28;20035;-81
2021/11/12 10:18:11;;;;;;;10.88;3.60;;;14.40;81.60;;;;;;4949111;28;20475;-82
2021/11/12 10:20:38;;;;;;;9.75;2.50;;;14.30;81.30;;;;;;4950655;28;20027;-82
2021/11/12 10:23:17;;;;;;;12.07;2.90;;;14.40;81.50;;;;;;4967011;28;20035;-80
2021/11/12 10:25:57;;;;;;;14.98;3.45;;;14.30;81.30;;;;;;4967492;28;20031;-81
2021/11/12 10:28:38;;;;;;;10.85;3.30;;;14.30;81.30;;;;;;4970997;28;20552;-80
2021/11/12 10:31:16;;;;;;;8.63;2.88;;;14.30;81.30;;;;;;4954022;28;20037;-85
2021/11/12 10:33:47;;;;;;;11.13;2.72;;;14.30;81.30;;;;;;4971045;28;20089;-80
2021/11/12 10:36:13;;;;;;;10.07;3.13;;;14.30;81.40;;;;;;4971459;28;20027;-82
2021/11/12 10:38:44;;;;;;;10.55;4.03;;;14.30;81.30;;;;;;4971121;28;20031;-83
2021/11/12 10:41:37;;;;;;;12.95;3.45;;;14.30;81.30;;;;;;4971242;28;20039;-83
2021/11/12 10:44:12;;;;;;;15.85;3.72;;;14.20;81.20;;;;;;4969231;28;20046;-80
2021/11/12 10:46:43;;;;;;;10.77;3.55;;;14.20;81.20;;;;;;4971338;28;20027;-81
2021/11/12 10:49:40;;;;;;;15.40;4.00;;;14.20;81.30;;;;;;4970917;28;20031;-80
2021/11/12 10:52:15;;;;;;;10.38;3.78;;;14.30;81.40;;;;;;4953242;28;20125;-86
2021/11/12 10:57:34;;;;;;;14.05;3.80;;;14.40;81.40;;;;;;4971077;28;20593;-81
2021/11/12 11:00:23;;;;;;;12.75;3.58;;;14.40;81.20;;;;;;4953474;28;20039;-81
2021/11/12 11:02:51;;;;;;;12.60;3.17;;;14.50;81.40;;;;;;4961165;28;20417;-81
2021/11/12 11:05:29;;;;;;;12.30;4.60;;;14.50;81.30;;;;;;4972375;28;20541;-80
2021/11/12 11:08:05;;;;;;;12.77;3.53;;;14.50;81.30;;;;;;4971695;28;20049;-81
2021/11/12 11:10:37;;;;;;;11.95;4.05;;;14.50;81.20;;;;;;4971896;28;20436;-84
2021/11/12 11:13:10;;;;;;;15.27;4.47;;;14.50;81.20;;;;;;4988980;28;20056;-80
2021/11/12 11:15:50;;;;;;;13.80;4.43;;;14.50;81.20;;;;;;4989044;28;20066;-81
2021/11/12 11:20:49;;;;;;;20.30;4.68;;;14.60;81.40;;;;;;4971766;28;20035;-81
2021/11/12 11:23:17;;;;;;;16.02;3.55;;;14.60;81.40;;;;;;4971874;28;20034;-82
2021/11/12 11:26:01;;;;;;;13.27;3.65;;;14.60;81.30;;;;;;4989338;28;20351;-82
2021/11/12 11:28:32;;;;;;;18.15;4.70;;;14.60;81.30;;;;;;4971188;28;20090;-82
2021/11/12 11:31:03;;;;;;;19.25;5.40;;;14.70;81.50;;;;;;4988940;28;20030;-82
2021/11/12 11:33:30;;;;;;;15.60;3.88;;;14.80;81.60;;;;;;4989246;28;20077;-82
2021/11/12 11:35:56;;;;;;;15.98;4.85;;;14.90;81.60;;;;;;4971508;28;20038;-82
2021/11/12 11:38:28;;;;;;;16.60;4.15;;;15.00;81.60;;;;;;4988035;28;20477;-82
2021/11/12 11:40:55;;;;;;;15.85;3.90;;;15.00;81.50;;;;;;4989164;28;20027;-83
2021/11/12 11:43:24;;;;;;;16.08;3.85;;;15.10;81.60;;;;;;4971456;28;20031;-84
2021/11/12 11:45:54;;;;;;;15.95;4.40;;;15.10;81.50;;;;;;4984018;28;20042;-81
2021/11/12 11:48:20;;;;;;;14.70;6.18;;;15.20;81.70;;;;;;4960686;28;20385;-81
2021/11/12 11:50:51;;;;;;;15.60;4.78;;;15.20;81.60;;;;;;4989060;28;20034;-81
2021/11/12 11:53:19;;;;;;;17.40;4.30;;;15.20;81.60;;;;;;4988317;28;20511;-81
2021/11/12 11:55:45;;;;;;;13.73;4.18;;;15.20;81.40;;;;;;4988449;28;20038;-83
2021/11/12 11:58:54;;;;;;;15.95;3.63;;;15.30;81.50;;;;;;4989086;28;20485;-82
2021/11/12 12:01:27;;;;;;;20.73;4.32;;;15.30;81.50;;;;;;4943981;28;20482;-81
2021/11/12 12:04:22;;;;;;;;;;;15.30;81.30;;;;;;4988555;28;20054;-83
2021/11/12 12:07:04;;;;;;;14.30;4.40;;;15.30;81.30;;;;;;4901904;28;19926;-83
2021/11/12 12:09:47;;;;;;;17.10;4.47;;;15.40;81.40;;;;;;4954579;28;20034;-81
2021/11/12 12:12:35;;;;;;;14.85;3.80;;;15.40;81.30;;;;;;4988343;28;20389;-81
2021/11/12 12:15:04;;;;;;;18.42;4.32;;;15.40;81.20;;;;;;4988326;28;20498;-81
2021/11/12 12:17:38;;;;;;;16.17;4.82;;;15.40;81.20;;;;;;4970673;28;20489;-82
2021/11/12 12:21:06;;;;;;;15.02;3.70;;;15.40;81.10;;;;;;4988319;28;20072;-79
2021/11/12 13:25:39;;;;;;;18.63;3.88;;;16.20;80.30;;;;;;4987324;28;20034;-82
2021/11/12 13:28:11;;;;;;;12.30;3.13;;;16.20;80.20;;;;;;4968871;28;20345;-82
2021/11/12 13:30:42;;;;;;;10.65;3.85;;;16.20;80.10;;;;;;4969989;28;20158;-79
2021/11/12 13:33:32;;;;;;;11.68;3.40;;;16.20;80.10;;;;;;4986414;28;20065;-80
2021/11/12 13:36:05;;;;;;;11.00;3.30;;;16.20;80.10;;;;;;4969660;28;20034;-79
2021/11/12 13:38:46;;;;;;;12.18;3.03;;;16.20;80.10;;;;;;4985595;28;20022;-81
2021/11/12 13:41:16;;;;;;;10.70;3.60;;;16.20;80.10;;;;;;4985987;28;20041;-80
2021/11/12 13:43:45;;;;;;;12.32;3.42;;;16.30;80.20;;;;;;4969509;28;20092;-79
2021/11/12 13:46:11;;;;;;;12.27;3.50;;;16.20;80.00;;;;;;4987284;28;20037;-83
2021/11/12 13:49:01;;;;;;;7.20;2.97;;;16.30;80.60;;;;;;4969686;28;20553;-80
2021/11/12 13:51:32;;;;;;;12.02;3.65;;;16.30;80.00;;;;;;4969081;28;20456;-83
2021/11/12 13:54:02;;;;;;;11.15;3.63;;;16.30;79.90;;;;;;4986519;28;20038;-81
2021/11/12 13:56:32;;;;;;;16.42;3.20;;;16.40;80.10;;;;;;4952967;28;20501;-81
2021/11/12 13:59:10;;;;;;;12.35;3.55;;;16.40;80.00;;;;;;4969043;28;20034;-82
2021/11/12 14:01:36;;;;;;;12.35;3.67;;;16.40;79.90;;;;;;4970811;28;20070;-82
2021/11/12 14:04:03;;;;;;;9.70;3.08;;;16.50;80.00;;;;;;4973125;28;20058;-82
2021/11/12 14:06:35;;;;;;;6.38;1.88;;;16.50;79.90;;;;;;4991428;28;20037;-83
2021/11/12 14:09:03;;;;;;;10.45;3.00;;;16.50;79.80;;;;;;4990535;28;20030;-82
2021/11/12 14:11:32;;;;;;;8.40;2.83;;;16.50;79.90;;;;;;4990606;28;20031;-82
2021/11/12 14:14:05;;;;;;;11.48;3.22;;;16.50;79.80;;;;;;4990618;28;20042;-81
2021/11/12 14:19:58;;;;;;;14.90;3.78;;;16.40;79.50;;;;;;4972492;28;20515;-83
2021/11/12 14:22:15;;;;;;;7.70;2.80;;;16.50;79.80;;;;;;4962785;28;20073;-82
2021/11/12 14:24:55;;;;;;;9.25;3.35;;;16.40;79.60;;;;;;4991235;28;20038;-83
2021/11/12 14:27:32;;;;;;;15.57;4.30;;;16.40;79.60;;;;;;4990349;28;20033;-84
2021/11/12 14:33:22;;;;;;;10.38;3.15;;;16.30;79.40;;;;;;4989927;28;20062;-83
2021/11/12 14:35:53;;;;;;;13.80;3.38;;;16.30;79.50;;;;;;4986242;28;20042;-82
2021/11/12 14:38:29;;;;;;;11.35;3.80;;;16.20;79.40;;;;;;4989742;28;20030;-82
2021/11/12 14:51:22;;;;;;;14.27;4.30;;;16.10;79.20;;;;;;4974080;28;20444;-81
2021/11/12 14:56:27;;;;;;;9.70;3.35;;;16.10;79.20;;;;;;4989853;28;20081;-82
2021/11/12 14:59:01;;;;;;;12.50;3.55;;;16.10;79.20;;;;;;4972676;28;20118;-85
2021/11/12 15:01:30;;;;;;;12.02;3.05;;;16.00;79.10;;;;;;4990933;28;20061;-84
2021/11/12 15:03:56;;;;;;;9.35;2.75;;;16.00;79.20;;;;;;4989683;28;20062;-83
2021/11/12 15:06:26;;;;;;;11.52;3.70;;;16.00;79.20;;;;;;4990102;28;20062;-83
2021/11/12 15:11:24;;;;;;;10.15;2.75;;;15.90;79.10;;;;;;4961456;28;20063;-83
2021/11/12 15:13:54;;;;;;;13.00;3.00;;;15.90;79.10;;;;;;4929507;28;20097;-82
2021/11/12 15:16:24;;;;;;;15.55;3.88;;;15.90;79.20;;;;;;4952137;28;20152;-83
2021/11/12 15:18:54;;;;;;;13.50;2.90;;;15.80;79.10;;;;;;4978652;28;20425;-83
2021/11/12 15:21:25;;;;;;;11.85;2.90;;;15.80;79.10;;;;;;4971741;28;20504;-83
2021/11/12 15:34:48;;;;;;;12.57;4.20;;;15.60;79.10;;;;;;4925812;28;20583;-81
2021/11/12 15:37:27;;;;;;;16.38;3.22;;;15.70;79.50;;;;;;4948160;28;20035;-82
2021/11/12 15:39:57;;;;;;;13.48;3.47;;;15.60;79.40;;;;;;4951542;28;20443;-81
2021/11/12 15:42:34;;;;;;;15.15;4.00;;;15.60;79.40;;;;;;4969618;28;20045;-82
2021/11/12 15:45:08;;;;;;;12.30;3.03;;;15.60;79.50;;;;;;4969505;28;20023;-83
2021/11/12 15:47:42;;;;;;;14.80;5.93;;;15.60;79.60;;;;;;4969891;28;20045;-83
2021/11/12 15:50:20;;;;;;;17.80;4.93;;;15.50;79.40;;;;;;4952414;28;20105;-82
2021/11/12 15:52:51;;;;;;;13.80;3.22;;;15.50;79.50;;;;;;4968799;28;20045;-83
2021/11/12 15:56:08;;;;;;;10.77;2.83;;;15.50;79.50;;;;;;4951540;28;20078;-81
2021/11/12 16:09:10;;;;;;;12.15;3.47;;;15.30;79.40;;;;;;4970766;28;20035;-81
2021/11/12 16:34:16;;;;;;;16.23;5.55;;;15.00;79.80;;;;;;4962442;28;20089;-85
2021/11/12 16:36:51;;;;;;;14.68;3.88;;;15.00;80.00;;;;;;4951120;28;20129;-85
2021/11/12 16:39:23;;;;;;;19.17;5.35;;;15.00;80.00;;;;;;4952157;28;20084;-85
2021/11/12 16:41:59;;;;;;;12.80;3.20;;;15.00;80.10;;;;;;4969714;28;20038;-82
2021/11/12 16:44:34;;;;;;;13.00;3.35;;;15.00;80.20;;;;;;4969122;28;20038;-83
2021/11/12 16:49:36;;;;;;;15.38;3.40;;;14.90;80.20;;;;;;4982869;28;20038;-83
2021/11/12 16:59:31;;;;;;;19.92;5.70;;;14.80;80.40;;;;;;4951040;28;20125;-82
2021/11/12 17:04:57;;;;;;;18.92;4.95;;;14.70;80.40;;;;;;4971078;28;20035;-85
2021/11/12 17:07:30;;;;;;;15.38;4.05;;;14.70;80.40;;;;;;4959309;28;20031;-83
2021/11/12 17:10:08;;;;;;;14.10;3.10;;;14.60;80.50;;;;;;4966812;28;20030;-82
2021/11/12 17:12:49;;;;;;;14.13;3.55;;;14.70;81.00;;;;;;4968344;28;20496;-82
2021/11/12 17:15:29;;;;;;;15.38;4.18;;;14.70;81.30;;;;;;4950265;28;20469;-82
2021/11/12 17:46:20;;;;;;;13.20;3.53;;;15.00;83.00;;;;;;4966974;28;20026;-83
2021/11/12 17:48:30;;;;;;;20.75;4.15;;;15.00;82.60;;;;;;4944523;28;20434;-83
2021/11/12 17:51:09;;;;;;;10.52;4.35;;;15.00;82.80;;;;;;4966835;28;20470;-83
2021/11/12 18:06:51;;;;;;;18.27;4.47;;;14.90;83.50;;;;;;4986104;28;20034;-82
2021/11/12 18:23:22;;;;;;;13.23;4.53;;;14.80;83.80;;;;;;4986614;28;20050;-82
2021/11/12 21:47:02;;;;;;;5.75;1.70;;;13.70;83.10;;;;;;4987706;28;20038;-82
2021/11/12 21:49:28;;;;;;;3.50;1.92;;;13.70;83.10;;;;;;4954884;28;20030;-82
2021/11/12 21:51:56;;;;;;;4.05;2.15;;;13.70;83.10;;;;;;4970523;28;20030;-82
2021/11/12 21:54:24;;;;;;;7.40;2.83;;;13.70;83.70;;;;;;4970393;28;20042;-81
2021/11/12 21:56:50;;;;;;;7.15;2.60;;;13.70;83.20;;;;;;4986760;28;20101;-81
2021/11/12 21:59:16;;;;;;;4.10;2.42;;;13.70;83.20;;;;;;4986970;28;20030;-81
2021/11/12 22:01:45;;;;;;;6.38;2.20;;;13.60;83.10;;;;;;4987311;28;20422;-81
2021/11/12 22:04:11;;;;;;;10.32;2.72;;;13.60;83.10;;;;;;4987281;28;20038;-82
2021/11/12 22:06:37;;;;;;;4.88;1.92;;;13.60;83.20;;;;;;4986785;28;20045;-81
2021/11/12 22:09:04;;;;;;;6.18;1.73;;;13.60;83.20;;;;;;4986957;28;20027;-81
2021/11/12 22:11:30;;;;;;;8.15;2.97;;;13.60;83.30;;;;;;4987073;28;20037;-81
2021/11/12 22:13:56;;;;;;;4.47;1.60;;;13.60;83.30;;;;;;4969769;28;20508;-81
2021/11/12 22:16:23;;;;;;;10.93;3.33;;;13.60;83.30;;;;;;4986723;28;20061;-81
2021/11/12 22:18:55;;;;;;;7.45;2.45;;;13.60;83.30;;;;;;4985436;28;20022;-81
2021/11/12 22:21:22;;;;;;;6.10;2.30;;;13.60;83.30;;;;;;4987448;28;20109;-81
2021/11/12 22:23:48;;;;;;;5.85;1.85;;;13.60;83.30;;;;;;4972634;28;20037;-81
2021/11/12 22:26:15;;;;;;;3.80;2.00;;;13.60;83.30;;;;;;4973332;28;20033;-82
2021/11/12 22:28:41;;;;;;;4.43;1.90;;;13.60;83.30;;;;;;4973658;28;20262;-81
2021/11/12 22:31:08;;;;;;;5.10;1.60;;;13.60;83.30;;;;;;4991146;28;20079;-81
2021/11/12 22:33:35;;;;;;;7.10;2.90;;;13.60;83.30;;;;;;4957374;28;20502;-81
2021/11/12 22:36:01;;;;;;;5.10;2.20;;;13.60;83.30;;;;;;4990685;28;20038;-82
2021/11/12 22:38:27;;;;;;;3.55;1.77;;;13.50;83.10;;;;;;4989687;28;20500;-83
2021/11/12 22:40:53;;;;;;;8.73;2.65;;;13.50;83.20;;;;;;4991201;28;20031;-82
2021/11/12 22:43:24;;;;;;;7.70;2.60;;;13.50;83.20;;;;;;4990751;28;20154;-82
2021/11/12 22:45:50;;;;;;;3.67;2.30;;;13.50;83.20;;;;;;4991096;28;20221;-82
2021/11/12 22:48:16;;;;;;;5.53;2.08;;;13.40;83.10;;;;;;4957322;28;20500;-82
2021/11/12 22:50:44;;;;;;;3.35;1.50;;;13.50;83.30;;;;;;4990239;28;20030;-83
2021/11/12 22:53:13;;;;;;;3.60;1.67;;;13.50;83.30;;;;;;4956608;28;20515;-82
2021/11/12 22:55:39;;;;;;;6.47;2.33;;;13.40;83.10;;;;;;4956543;28;20129;-82
2021/11/12 22:58:05;;;;;;;5.35;1.77;;;13.40;83.20;;;;;;4972329;28;20509;-83
2021/11/12 23:00:31;;;;;;;2.85;1.50;;;13.40;83.20;;;;;;4956669;28;20050;-82
2021/11/12 23:02:58;;;;;;;6.03;2.60;;;13.30;83.10;;;;;;4956613;28;20077;-81